Time;durP1;ratioP1;P1;durP2;ratioP2;P2;SDS_P1;SDS_P2;PMS_P1;PMS_P2;Temp;Humidity;BMP_temperature;BMP_pressure;BME280_temperature;BME280_humidity;BME280_pressure;Samples;Min_cycle;Max_cycle;Signal;HPM_P1;HPM_P2
2022/01/12 00:01:15;;;;;;;9.38;4.70;;;-6.60;89.70;;;;;;5016341;28;20476;-79
2022/01/12 00:03:42;;;;;;;9.60;4.97;;;-6.60;89.90;;;;;;5016567;28;20553;-79
2022/01/12 00:06:08;;;;;;;9.05;4.63;;;-6.70;90.00;;;;;;5016262;28;20448;-79
2022/01/12 00:08:34;;;;;;;9.52;5.07;;;-6.70;90.10;;;;;;5016370;28;20129;-79
2022/01/12 00:11:02;;;;;;;8.27;4.50;;;-6.70;90.50;;;;;;5016323;28;20037;-79
2022/01/12 00:13:28;;;;;;;8.93;4.40;;;-6.70;90.40;;;;;;5016421;28;20120;-79
2022/01/12 00:15:54;;;;;;;7.50;4.00;;;-6.70;90.50;;;;;;5015944;28;20108;-79
2022/01/12 00:18:20;;;;;;;9.30;4.80;;;-6.70;90.40;;;;;;5016081;28;20376;-79
2022/01/12 00:20:48;;;;;;;9.93;4.78;;;-6.70;90.30;;;;;;5016168;28;20033;-79
2022/01/12 00:23:15;;;;;;;10.57;5.18;;;-6.80;90.00;;;;;;5016140;28;20068;-79
2022/01/12 00:34:03;;;;;;;9.70;4.65;;;-6.90;89.40;;;;;;5034460;28;20045;-78
2022/01/12 00:36:30;;;;;;;8.77;5.07;;;-6.90;89.60;;;;;;5016515;28;20025;-78
2022/01/12 00:38:56;;;;;;;7.18;3.88;;;-6.90;89.70;;;;;;5015939;28;20033;-78
2022/01/12 00:41:22;;;;;;;8.70;4.55;;;-6.90;90.10;;;;;;5015873;28;20407;-78
2022/01/12 00:43:56;;;;;;;9.05;4.70;;;-7.00;90.00;;;;;;5033618;28;20104;-78
2022/01/12 00:46:22;;;;;;;7.85;4.35;;;-6.90;89.90;;;;;;5016009;28;20427;-78
2022/01/12 00:48:48;;;;;;;9.38;4.45;;;-6.90;90.00;;;;;;5033578;28;20078;-79
2022/01/12 00:51:13;;;;;;;7.95;4.28;;;-6.90;90.00;;;;;;5033252;28;20029;-77
2022/01/12 00:53:40;;;;;;;7.53;4.22;;;-6.90;90.00;;;;;;5015994;28;20033;-77
2022/01/12 00:56:06;;;;;;;9.15;4.75;;;-6.90;90.00;;;;;;5015911;28;20032;-78
2022/01/12 00:58:35;;;;;;;7.03;3.88;;;-7.00;90.00;;;;;;5033547;28;20033;-78
2022/01/12 01:01:03;;;;;;;8.43;4.07;;;-7.00;90.00;;;;;;5033292;28;20029;-79
2022/01/12 01:03:29;;;;;;;7.47;4.38;;;-7.00;90.10;;;;;;5033653;28;20025;-78
2022/01/12 01:05:56;;;;;;;9.70;4.72;;;-7.00;89.70;;;;;;5015713;28;20057;-78
2022/01/12 01:08:22;;;;;;;10.27;4.82;;;-7.00;89.70;;;;;;5033076;28;20054;-77
2022/01/12 01:10:51;;;;;;;8.70;4.40;;;-7.00;89.40;;;;;;5018508;28;20040;-77
2022/01/12 01:13:23;;;;;;;9.70;4.72;;;-7.00;89.80;;;;;;5020101;28;20029;-78
2022/01/12 01:26:39;;;;;;;9.90;4.80;;;-7.20;89.30;;;;;;5037663;28;20521;-79
2022/01/12 01:29:06;;;;;;;8.50;4.63;;;-7.20;89.20;;;;;;5037505;28;20030;-79
2022/01/12 01:31:33;;;;;;;9.18;4.78;;;-7.30;89.00;;;;;;5037243;28;20026;-79
2022/01/12 01:34:05;;;;;;;10.13;4.80;;;-7.30;88.90;;;;;;5019685;28;20026;-80
2022/01/12 01:36:32;;;;;;;10.30;4.60;;;-7.30;88.80;;;;;;5019296;28;20053;-79
2022/01/12 01:38:58;;;;;;;10.00;4.93;;;-7.30;89.00;;;;;;5037245;28;20033;-79
2022/01/12 01:41:24;;;;;;;9.73;5.50;;;-7.30;89.30;;;;;;5037286;28;20045;-80
2022/01/12 01:44:19;;;;;;;9.30;4.80;;;-7.40;89.20;;;;;;5038132;28;20452;-79
2022/01/12 01:54:55;;;;;;;9.13;4.82;;;-7.60;90.10;;;;;;5037063;28;20428;-79
2022/01/12 01:57:21;;;;;;;8.75;4.80;;;-7.60;90.10;;;;;;5019021;28;20108;-78
2022/01/12 01:59:47;;;;;;;8.30;4.80;;;-7.70;90.00;;;;;;5036758;28;20084;-79
2022/01/12 02:02:14;;;;;;;10.32;4.88;;;-7.70;90.20;;;;;;5019044;28;20116;-79
2022/01/12 02:04:40;;;;;;;9.13;4.80;;;-7.70;90.20;;;;;;5036743;28;20430;-79
2022/01/12 02:07:06;;;;;;;9.20;4.97;;;-7.70;90.20;;;;;;5018981;28;20025;-78
2022/01/12 02:09:34;;;;;;;8.30;4.30;;;-7.70;90.00;;;;;;5036185;28;20095;-79
2022/01/12 02:12:01;;;;;;;10.15;4.75;;;-7.70;89.70;;;;;;5036713;28;20442;-77
2022/01/12 02:14:28;;;;;;;8.65;4.70;;;-7.70;90.00;;;;;;5018885;28;20117;-78
2022/01/12 02:17:00;;;;;;;8.65;4.50;;;-7.80;89.20;;;;;;5018807;28;20026;-79
2022/01/12 02:36:09;;;;;;;7.72;4.40;;;-7.90;88.10;;;;;;5036261;28;20395;-77
2022/01/12 02:41:01;;;;;;;8.75;4.40;;;-8.00;87.30;;;;;;5036113;28;20049;-78
2022/01/12 02:50:34;;;;;;;7.82;4.40;;;-8.00;86.30;;;;;;5035803;28;20037;-78
2022/01/12 02:54:38;;;;;;;9.73;4.22;;;-8.20;85.60;;;;;;5010972;28;20073;-78
2022/01/12 02:57:04;;;;;;;10.40;4.38;;;-8.30;85.30;;;;;;5018071;28;20064;-78
2022/01/12 02:59:30;;;;;;;6.80;3.35;;;-8.30;85.20;;;;;;5017798;28;20164;-80
2022/01/12 03:04:31;;;;;;;8.82;4.47;;;-8.40;84.50;;;;;;5035747;28;20037;-78
2022/01/12 03:07:05;;;;;;;8.18;3.78;;;-8.40;84.50;;;;;;5017754;28;20033;-77
2022/01/12 03:09:31;;;;;;;9.63;4.50;;;-8.50;83.90;;;;;;5035607;28;20037;-77
2022/01/12 03:11:56;;;;;;;7.32;4.03;;;-8.60;83.90;;;;;;5035815;28;20025;-78
2022/01/12 03:14:22;;;;;;;6.43;3.88;;;-8.60;84.30;;;;;;5017608;28;20027;-78
2022/01/12 03:16:48;;;;;;;9.88;4.38;;;-8.70;84.30;;;;;;5018042;28;20061;-78
2022/01/12 03:19:13;;;;;;;7.45;3.80;;;-8.70;84.00;;;;;;5017733;28;20111;-78
2022/01/12 03:21:39;;;;;;;8.70;4.15;;;-8.70;84.10;;;;;;5040679;28;20041;-78
2022/01/12 03:24:06;;;;;;;7.47;3.30;;;-8.70;84.00;;;;;;5022803;28;20357;-78
2022/01/12 03:26:34;;;;;;;9.57;4.30;;;-8.70;84.70;;;;;;5017286;28;20455;-78
2022/01/12 03:29:00;;;;;;;7.78;4.00;;;-8.70;84.00;;;;;;5017332;28;20030;-78
2022/01/12 03:31:30;;;;;;;8.77;4.18;;;-8.70;83.80;;;;;;5017785;28;20080;-78
2022/01/12 03:34:05;;;;;;;10.10;4.22;;;-8.80;84.00;;;;;;5016924;28;20445;-77
2022/01/12 03:36:53;;;;;;;7.88;4.10;;;-8.80;85.30;;;;;;5034900;28;20060;-77
2022/01/12 03:39:19;;;;;;;5.65;3.60;;;-8.80;84.80;;;;;;5034470;28;20022;-78
2022/01/12 03:41:45;;;;;;;10.18;4.40;;;-8.80;85.70;;;;;;5025696;28;20103;-77
2022/01/12 03:44:12;;;;;;;9.38;4.78;;;-8.80;85.80;;;;;;5036844;28;20025;-77
2022/01/12 03:46:45;;;;;;;12.05;5.18;;;-8.90;85.90;;;;;;5037209;28;20029;-78
2022/01/12 03:49:11;;;;;;;9.07;4.50;;;-8.90;86.30;;;;;;5055013;28;20425;-79
2022/01/12 03:51:37;;;;;;;10.18;4.25;;;-8.90;86.50;;;;;;5055150;28;20060;-79
2022/01/12 03:54:03;;;;;;;9.68;3.97;;;-8.90;86.90;;;;;;5054582;28;20100;-78
2022/01/12 03:56:29;;;;;;;7.28;4.07;;;-8.90;86.90;;;;;;5036579;28;20033;-78
2022/01/12 03:58:55;;;;;;;10.20;4.03;;;-8.90;86.70;;;;;;5054418;28;20025;-78
2022/01/12 04:01:21;;;;;;;7.28;4.00;;;-8.90;87.10;;;;;;5036465;28;20383;-78
2022/01/12 04:03:57;;;;;;;7.47;4.05;;;-8.90;86.80;;;;;;5036452;28;20029;-80
2022/01/12 04:09:08;;;;;;;8.25;3.88;;;-8.90;87.30;;;;;;5054829;28;20076;-78
2022/01/12 04:11:33;;;;;;;6.85;4.00;;;-8.90;86.30;;;;;;5054379;28;20387;-78
2022/01/12 04:13:59;;;;;;;8.85;3.78;;;-8.90;86.10;;;;;;5054391;28;20078;-78
2022/01/12 04:16:25;;;;;;;7.25;3.95;;;-9.00;85.90;;;;;;5054315;28;20032;-79
2022/01/12 04:18:50;;;;;;;9.45;4.22;;;-9.10;85.80;;;;;;5036439;28;20032;-79
2022/01/12 04:21:18;;;;;;;9.13;4.30;;;-9.10;86.10;;;;;;5036325;28;20527;-80
2022/01/12 04:23:43;;;;;;;9.13;3.67;;;-9.20;86.50;;;;;;5053879;28;20020;-78
2022/01/12 04:26:12;;;;;;;7.50;3.85;;;-9.10;87.10;;;;;;5036142;28;20025;-78
2022/01/12 04:28:41;;;;;;;7.15;3.65;;;-9.20;86.60;;;;;;5053647;28;20018;-78
2022/01/12 04:31:08;;;;;;;8.07;3.95;;;-9.30;85.90;;;;;;5053844;28;20032;-77
2022/01/12 04:33:35;;;;;;;10.05;4.00;;;-9.40;85.60;;;;;;5036343;28;20036;-75
2022/01/12 04:36:01;;;;;;;8.38;3.80;;;-9.40;86.10;;;;;;5036317;28;20056;-79
2022/01/12 04:38:30;;;;;;;6.70;3.65;;;-9.40;86.60;;;;;;5035961;28;20108;-79
2022/01/12 04:40:56;;;;;;;9.10;5.00;;;-9.50;86.80;;;;;;5035605;28;20120;-79
2022/01/12 04:43:24;;;;;;;8.68;4.43;;;-9.60;86.60;;;;;;5035472;28;20056;-79
2022/01/12 04:50:47;;;;;;;10.20;4.68;;;-9.80;85.50;;;;;;5053733;28;20040;-79
2022/01/12 04:53:14;;;;;;;7.38;4.28;;;-9.80;85.70;;;;;;5036751;28;20033;-78
2022/01/12 04:55:41;;;;;;;9.45;4.03;;;-9.90;85.90;;;;;;5038975;28;20096;-78
2022/01/12 04:58:08;;;;;;;8.10;4.30;;;-9.90;86.40;;;;;;5038275;28;20052;-77
2022/01/12 05:00:36;;;;;;;12.00;4.40;;;-10.00;85.60;;;;;;5035255;28;20090;-79
2022/01/12 05:13:46;;;;;;;12.00;5.47;;;-10.10;83.80;;;;;;5053382;28;20040;-90
2022/01/12 05:16:12;;;;;;;9.80;4.95;;;-10.20;82.90;;;;;;5035161;28;20025;-86
2022/01/12 05:18:39;;;;;;;9.70;4.63;;;-10.30;82.50;;;;;;5047366;28;20033;-87
2022/01/12 05:21:06;;;;;;;9.25;4.43;;;-10.40;82.70;;;;;;5032348;28;20056;-86
2022/01/12 05:23:32;;;;;;;9.32;4.60;;;-10.40;82.70;;;;;;5019578;28;20030;-89
2022/01/12 05:25:58;;;;;;;10.68;4.63;;;-10.40;82.90;;;;;;5023919;28;20075;-85
2022/01/12 05:28:25;;;;;;;10.35;4.53;;;-10.50;82.60;;;;;;5052978;28;20075;-85
2022/01/12 05:30:52;;;;;;;11.25;4.72;;;-10.40;83.00;;;;;;5052862;28;20036;-85
2022/01/12 05:33:19;;;;;;;11.27;4.82;;;-10.50;82.60;;;;;;5035142;28;20029;-87
2022/01/12 05:35:45;;;;;;;10.00;4.63;;;-10.50;82.40;;;;;;5037480;28;20025;-86
2022/01/12 05:38:13;;;;;;;10.05;4.72;;;-10.50;82.30;;;;;;5035578;28;20052;-86
2022/01/12 05:40:46;;;;;;;9.70;4.43;;;-10.50;82.30;;;;;;5052105;28;20121;-86
2022/01/12 05:43:23;;;;;;;8.90;4.43;;;-10.50;82.40;;;;;;5055485;28;20033;-86
2022/01/12 05:45:50;;;;;;;9.38;4.38;;;-10.60;82.30;;;;;;5035995;28;20032;-86
2022/01/12 05:50:43;;;;;;;6.70;3.70;;;-10.50;82.40;;;;;;5049527;28;20136;-87
2022/01/12 05:53:09;;;;;;;7.75;3.70;;;-10.50;82.60;;;;;;5032581;28;20032;-87
2022/01/12 05:55:35;;;;;;;7.85;3.58;;;-10.50;83.00;;;;;;5033086;28;20356;-87
2022/01/12 05:58:00;;;;;;;7.22;3.35;;;-10.40;82.80;;;;;;5042802;28;20032;-84
2022/01/12 06:00:28;;;;;;;8.20;3.58;;;-10.40;83.40;;;;;;5060100;28;20048;-86
2022/01/12 06:02:54;;;;;;;9.05;3.97;;;-9.70;84.10;;;;;;5037296;28;20025;-87
2022/01/12 06:05:21;;;;;;;6.22;3.47;;;-10.30;84.30;;;;;;5039801;28;20447;-86
2022/01/12 06:07:48;;;;;;;8.48;3.58;;;-10.20;83.90;;;;;;5058686;28;20060;-87
2022/01/12 06:10:15;;;;;;;8.50;3.85;;;-10.10;83.60;;;;;;5039505;28;20036;-88
2022/01/12 06:12:41;;;;;;;6.30;3.80;;;-10.10;83.20;;;;;;5038779;28;20033;-87
2022/01/12 06:15:08;;;;;;;7.60;3.33;;;-10.10;83.50;;;;;;5043965;28;20029;-95
2022/01/12 06:17:34;;;;;;;8.77;3.40;;;-10.00;83.80;;;;;;5061999;28;20032;-90
2022/01/12 06:20:05;;;;;;;7.45;3.90;;;-9.90;83.40;;;;;;5038553;28;20040;-89
2022/01/12 06:22:31;;;;;;;8.27;4.28;;;-9.90;83.30;;;;;;5039436;28;20412;-89
2022/01/12 06:24:59;;;;;;;11.07;4.78;;;-9.90;81.90;;;;;;5056420;28;20467;-88
2022/01/12 06:27:29;;;;;;;7.72;4.10;;;-10.00;81.60;;;;;;5056835;28;20032;-89
2022/01/12 06:32:21;;;;;;;8.35;3.90;;;-10.00;82.50;;;;;;5055421;28;20534;-85
2022/01/12 06:34:47;;;;;;;9.00;3.70;;;-10.00;83.70;;;;;;5037506;28;20032;-85
2022/01/12 06:37:15;;;;;;;6.78;3.90;;;-9.90;83.70;;;;;;5055671;28;20029;-84
2022/01/12 06:39:41;;;;;;;62.10;27.88;;;-9.80;83.30;;;;;;5055444;28;20038;-86
2022/01/12 06:42:07;;;;;;;23.08;11.15;;;-9.70;83.30;;;;;;5037952;28;20159;-87
2022/01/12 06:44:32;;;;;;;16.65;6.57;;;-9.70;82.10;;;;;;5037864;28;20116;-88
2022/01/12 06:47:03;;;;;;;11.35;5.63;;;-9.70;81.70;;;;;;5055736;28;20374;-88
2022/01/12 06:49:29;;;;;;;8.60;3.92;;;-9.70;81.20;;;;;;5055613;28;20017;-87
2022/01/12 06:51:55;;;;;;;12.18;5.30;;;-9.80;82.50;;;;;;5055677;28;20060;-88
2022/01/12 06:54:21;;;;;;;9.73;4.90;;;-9.80;82.10;;;;;;5055467;28;20052;-88
2022/01/12 06:56:47;;;;;;;11.38;5.13;;;-9.80;82.30;;;;;;5038038;28;20025;-88
2022/01/12 06:59:13;;;;;;;10.43;4.68;;;-9.80;82.40;;;;;;5040891;28;20029;-87
2022/01/12 07:01:39;;;;;;;10.95;4.70;;;-9.80;82.40;;;;;;5045348;28;20040;-89
2022/01/12 07:04:05;;;;;;;11.35;4.85;;;-9.80;82.50;;;;;;5045498;28;20029;-90
2022/01/12 07:06:34;;;;;;;10.15;4.38;;;-9.80;82.70;;;;;;5056135;28;20108;-90
2022/01/12 07:09:00;;;;;;;50.60;19.75;;;-9.70;82.50;;;;;;5057474;28;20474;-92
2022/01/12 07:11:26;;;;;;;27.55;10.02;;;-9.70;82.50;;;;;;5038252;28;20040;-88
2022/01/12 07:13:51;;;;;;;18.77;7.75;;;-9.70;82.10;;;;;;5038326;28;20022;-86
2022/01/12 07:16:17;;;;;;;16.33;6.63;;;-9.60;82.40;;;;;;5036842;28;20029;-86
2022/01/12 07:18:43;;;;;;;15.43;5.82;;;-9.60;82.80;;;;;;5054920;28;20598;-86
2022/01/12 07:21:08;;;;;;;13.48;5.22;;;-9.60;83.50;;;;;;5048659;28;20052;-85
2022/01/12 07:23:34;;;;;;;13.30;5.30;;;-9.40;83.10;;;;;;5049796;28;20032;-86
2022/01/12 07:26:00;;;;;;;10.63;5.00;;;-9.10;83.50;;;;;;5031720;28;20074;-84
2022/01/12 07:28:26;;;;;;;9.48;4.30;;;-8.60;83.80;;;;;;5031392;28;20052;-85
2022/01/12 07:30:51;;;;;;;11.32;4.45;;;-8.30;82.20;;;;;;5031026;28;20431;-83
2022/01/12 07:33:17;;;;;;;8.57;4.70;;;-8.10;81.30;;;;;;5049005;28;20478;-85
2022/01/12 07:35:43;;;;;;;10.07;4.70;;;-7.90;80.40;;;;;;5030687;28;20017;-84
2022/01/12 07:38:09;;;;;;;10.45;4.63;;;-7.70;79.30;;;;;;5048560;28;20044;-84
2022/01/12 07:40:36;;;;;;;9.60;4.80;;;-7.50;78.30;;;;;;5031026;28;20538;-83
2022/01/12 07:43:08;;;;;;;14.02;4.68;;;-7.20;77.10;;;;;;5031606;28;20036;-84
2022/01/12 07:45:35;;;;;;;8.43;4.55;;;-7.20;75.50;;;;;;5031268;28;20391;-84
2022/01/12 07:48:00;;;;;;;9.77;4.60;;;-7.30;75.10;;;;;;5049212;28;20056;-84
2022/01/12 07:50:26;;;;;;;7.43;4.30;;;-7.50;73.20;;;;;;5031693;28;20479;-84
2022/01/12 07:52:53;;;;;;;9.23;4.18;;;-7.80;72.70;;;;;;5030672;28;20340;-84
2022/01/12 07:55:21;;;;;;;9.43;5.05;;;-7.90;74.00;;;;;;5049091;28;20025;-85
2022/01/12 07:57:47;;;;;;;12.32;5.43;;;-8.10;73.90;;;;;;5050394;28;20479;-84
2022/01/12 08:00:14;;;;;;;12.40;4.68;;;-8.30;73.80;;;;;;5035778;28;20041;-83
2022/01/12 08:02:40;;;;;;;8.15;3.92;;;-8.40;74.50;;;;;;5052835;28;20112;-83
2022/01/12 08:05:08;;;;;;;10.00;4.18;;;-8.50;75.20;;;;;;5051907;28;20159;-85
2022/01/12 08:07:36;;;;;;;10.48;4.28;;;-8.50;74.90;;;;;;5034089;28;20070;-84
2022/01/12 08:10:07;;;;;;;8.25;4.05;;;-8.60;75.30;;;;;;5035512;28;20064;-84
2022/01/12 08:12:33;;;;;;;8.90;4.15;;;-8.60;75.60;;;;;;5053522;28;20025;-84
2022/01/12 08:14:59;;;;;;;8.68;4.40;;;-8.60;75.40;;;;;;5036041;28;20438;-85
2022/01/12 08:17:24;;;;;;;9.90;4.75;;;-8.70;75.10;;;;;;5035730;28;20052;-85
2022/01/12 08:19:55;;;;;;;10.35;4.80;;;-8.80;75.00;;;;;;5036002;28;20041;-86
2022/01/12 08:22:24;;;;;;;9.88;4.97;;;-8.70;75.60;;;;;;5035674;28;20021;-86
2022/01/12 08:24:50;;;;;;;8.85;4.90;;;-8.70;75.70;;;;;;5054018;28;20501;-84
2022/01/12 08:27:15;;;;;;;10.18;4.70;;;-8.60;75.70;;;;;;5053910;28;20025;-85
2022/01/12 08:29:41;;;;;;;11.90;5.57;;;-8.40;75.00;;;;;;5036590;28;20094;-84
2022/01/12 08:32:08;;;;;;;10.25;4.35;;;-8.40;74.40;;;;;;5035707;28;20033;-84
2022/01/12 08:34:34;;;;;;;10.93;4.32;;;-8.10;75.70;;;;;;5052644;28;20029;-85
2022/01/12 08:36:59;;;;;;;11.30;4.93;;;-7.70;76.10;;;;;;5035529;28;20040;-84
2022/01/12 08:39:25;;;;;;;11.38;4.97;;;-7.30;74.80;;;;;;5035444;28;20036;-84
2022/01/12 08:41:51;;;;;;;9.80;4.65;;;-7.00;73.00;;;;;;5053202;28;20098;-85
2022/01/12 08:44:16;;;;;;;10.93;4.80;;;-6.60;72.20;;;;;;5035560;28;20029;-85
2022/01/12 08:46:42;;;;;;;8.63;4.35;;;-6.50;70.40;;;;;;5035715;28;20116;-85
2022/01/12 08:49:09;;;;;;;8.75;4.43;;;-6.40;69.70;;;;;;5041978;28;20029;-86
2022/01/12 08:51:36;;;;;;;8.73;4.53;;;-6.10;71.00;;;;;;5048670;28;20438;-84
2022/01/12 08:54:03;;;;;;;8.43;4.55;;;-5.60;70.20;;;;;;5045259;28;20025;-86
2022/01/12 08:56:29;;;;;;;60.55;26.15;;;-5.10;68.40;;;;;;5019114;28;20026;-84
2022/01/12 08:58:54;;;;;;;22.35;10.90;;;-4.70;67.10;;;;;;5041995;28;20471;-88
2022/01/12 09:01:20;;;;;;;35.63;18.58;;;-4.30;64.50;;;;;;5019903;28;20036;-85
2022/01/12 09:03:47;;;;;;;17.20;8.60;;;-4.20;63.30;;;;;;5022713;28;20059;-84
2022/01/12 09:06:13;;;;;;;13.27;6.72;;;-4.30;62.50;;;;;;5029706;28;20021;-85
2022/01/12 09:08:40;;;;;;;10.85;5.70;;;-4.60;62.80;;;;;;5025942;28;20056;-84
2022/01/12 09:11:07;;;;;;;12.90;5.68;;;-4.80;63.40;;;;;;5026521;28;20607;-85
2022/01/12 09:13:33;;;;;;;9.63;5.05;;;-5.40;62.50;;;;;;5026781;28;20115;-86
2022/01/12 09:16:10;;;;;;;10.70;5.25;;;-5.80;63.40;;;;;;5026254;28;20064;-85
2022/01/12 09:18:38;;;;;;;10.82;5.38;;;-5.80;64.30;;;;;;5030490;28;20025;-88
2022/01/12 09:21:04;;;;;;;10.38;4.60;;;-5.60;65.20;;;;;;5048181;28;20097;-92
2022/01/12 09:23:30;;;;;;;9.02;4.40;;;-5.50;64.40;;;;;;5029936;28;20488;-90
2022/01/12 09:25:56;;;;;;;9.52;5.35;;;-5.30;64.50;;;;;;5026251;28;20025;-86
2022/01/12 09:28:22;;;;;;;8.30;4.70;;;-4.90;64.40;;;;;;5043916;28;20025;-85
2022/01/12 09:30:48;;;;;;;13.90;5.15;;;-4.80;62.40;;;;;;5026969;28;20028;-84
2022/01/12 09:33:14;;;;;;;9.63;4.68;;;-4.80;61.50;;;;;;5029502;28;20032;-84
2022/01/12 09:35:40;;;;;;;7.80;3.92;;;-4.90;61.80;;;;;;5047664;28;20904;-85
2022/01/12 09:38:06;;;;;;;10.77;4.70;;;-4.90;61.90;;;;;;5029687;28;20167;-87
2022/01/12 09:40:32;;;;;;;8.13;4.50;;;-4.70;62.20;;;;;;5029528;28;20482;-86
2022/01/12 09:43:03;;;;;;;34.38;15.55;;;-4.50;61.60;;;;;;5030363;28;20025;-88
2022/01/12 09:45:29;;;;;;;24.38;10.35;;;-4.40;61.10;;;;;;5029920;28;20422;-83
2022/01/12 09:47:54;;;;;;;13.20;6.63;;;-4.10;61.00;;;;;;5047087;28;20024;-82
2022/01/12 09:50:22;;;;;;;10.77;4.88;;;-4.20;59.30;;;;;;5029876;28;20025;-83
2022/01/12 09:52:49;;;;;;;10.75;4.68;;;-4.40;59.50;;;;;;5047229;28;20099;-83
2022/01/12 09:55:16;;;;;;;7.82;4.15;;;-4.70;59.70;;;;;;5030980;28;20029;-83
2022/01/12 09:57:41;;;;;;;9.35;4.65;;;-4.80;60.10;;;;;;5054803;28;20021;-84
2022/01/12 10:00:09;;;;;;;8.32;4.50;;;-5.00;59.70;;;;;;5051064;28;20538;-83
2022/01/12 10:02:35;;;;;;;10.85;5.50;;;-5.20;60.60;;;;;;5033468;28;20455;-84
2022/01/12 10:05:05;;;;;;;12.38;5.90;;;-5.50;60.90;;;;;;5035554;28;20387;-83
2022/01/12 10:07:32;;;;;;;11.93;5.65;;;-5.70;61.60;;;;;;5053109;28;20053;-83
2022/01/12 10:10:17;;;;;;;9.82;4.90;;;-6.10;61.20;;;;;;5032772;28;20061;-84
2022/01/12 10:12:56;;;;;;;8.77;4.65;;;-6.60;62.50;;;;;;5034199;28;20219;-84
2022/01/12 10:15:22;;;;;;;9.07;4.70;;;-6.80;64.50;;;;;;5052031;28;20091;-83
2022/01/12 10:17:47;;;;;;;9.82;5.30;;;-7.00;64.90;;;;;;5050559;28;20079;-83
2022/01/12 10:20:18;;;;;;;11.23;5.00;;;-7.20;65.00;;;;;;5033352;28;20037;-84
2022/01/12 10:23:01;;;;;;;32.08;13.75;;;-7.50;66.10;;;;;;5050988;28;20048;-83
2022/01/12 10:25:30;;;;;;;36.65;15.02;;;-7.70;66.70;;;;;;5030646;28;20068;-84
2022/01/12 10:28:09;;;;;;;20.00;8.98;;;-7.70;67.30;;;;;;5023156;28;20387;-84
2022/01/12 10:30:37;;;;;;;18.50;5.55;;;-7.80;67.10;;;;;;5013540;28;20376;-84
2022/01/12 10:33:08;;;;;;;11.55;5.03;;;-8.00;67.20;;;;;;5013514;28;20151;-86
2022/01/12 10:35:40;;;;;;;10.40;4.45;;;-8.10;67.90;;;;;;5026837;28;20487;-84
2022/01/12 10:38:12;;;;;;;10.30;4.53;;;-8.10;68.50;;;;;;5032695;28;20075;-85
2022/01/12 10:40:48;;;;;;;9.23;4.53;;;-8.10;69.10;;;;;;5032726;28;20044;-87
2022/01/12 10:43:49;;;;;;;9.95;4.60;;;-8.10;68.90;;;;;;5031422;28;20024;-87
2022/01/12 10:46:15;;;;;;;;;;;-8.10;69.50;;;;;;4951160;29;20028;-86
2022/01/12 10:48:48;;;;;;;9.40;3.90;;;-8.30;69.10;;;;;;5013973;28;19909;-85
2022/01/12 10:51:26;;;;;;;10.05;4.03;;;-8.20;69.20;;;;;;5031589;28;20031;-86
2022/01/12 10:54:03;;;;;;;8.77;4.10;;;-8.20;69.00;;;;;;5032291;28;20493;-85
2022/01/12 10:56:29;;;;;;;5.90;3.20;;;-8.20;68.50;;;;;;5032601;28;20029;-85
2022/01/12 10:58:56;;;;;;;8.82;4.05;;;-8.20;68.80;;;;;;5050783;28;20073;-85
2022/01/12 11:01:25;;;;;;;11.55;4.65;;;-8.20;68.60;;;;;;5033917;28;20053;-84
2022/01/12 11:03:54;;;;;;;7.07;3.83;;;-8.30;68.50;;;;;;5056455;28;20320;-81
2022/01/12 11:06:19;;;;;;;8.27;3.90;;;-8.30;68.00;;;;;;5035692;28;20044;-83
2022/01/12 11:08:50;;;;;;;7.68;3.90;;;-8.30;68.00;;;;;;5051669;28;20045;-84
2022/01/12 11:11:17;;;;;;;8.18;3.70;;;-8.30;68.00;;;;;;5033031;28;20020;-83
2022/01/12 11:13:45;;;;;;;9.30;3.65;;;-8.40;67.60;;;;;;5050059;28;20459;-83
2022/01/12 11:16:11;;;;;;;8.43;3.67;;;-8.50;67.70;;;;;;5050029;28;20021;-84
2022/01/12 11:18:39;;;;;;;7.90;3.60;;;-8.60;67.10;;;;;;5033131;28;20033;-84
2022/01/12 11:21:24;;;;;;;6.05;3.50;;;-8.60;68.40;;;;;;5050251;28;20037;-83
2022/01/12 11:23:51;;;;;;;9.15;3.40;;;-8.50;68.40;;;;;;5050646;28;20123;-83
2022/01/12 11:26:24;;;;;;;6.50;3.55;;;-8.50;67.70;;;;;;5049890;28;20104;-83
2022/01/12 11:28:52;;;;;;;7.32;3.20;;;-8.50;67.50;;;;;;5031695;28;20127;-82
2022/01/12 11:31:29;;;;;;;8.63;3.53;;;-8.50;67.10;;;;;;5031669;28;20386;-85
2022/01/12 11:33:55;;;;;;;5.80;3.20;;;-8.60;66.90;;;;;;5031690;28;20021;-85
2022/01/12 11:36:27;;;;;;;6.43;2.90;;;-8.70;66.80;;;;;;5032211;28;20025;-82
2022/01/12 11:39:06;;;;;;;4.75;3.00;;;-8.70;67.30;;;;;;5049707;28;20388;-82
2022/01/12 11:41:37;;;;;;;6.88;3.00;;;-8.70;67.20;;;;;;5050067;28;20106;-82
2022/01/12 11:44:25;;;;;;;;;;;-8.70;67.70;;;;;;5027818;28;20037;-82
2022/01/12 11:47:03;;;;;;;4.13;2.67;;;-8.70;67.50;;;;;;5029233;28;19905;-82
2022/01/12 11:49:35;;;;;;;4.95;2.75;;;-8.70;67.70;;;;;;5012456;28;20025;-83
2022/01/12 11:52:22;;;;;;;7.55;3.70;;;-8.70;67.70;;;;;;5030671;28;20413;-83
2022/01/12 11:54:52;;;;;;;6.07;3.35;;;-8.60;68.00;;;;;;5011523;28;20432;-84
2022/01/12 11:57:19;;;;;;;6.50;3.60;;;-8.60;67.70;;;;;;5030040;28;20026;-83
2022/01/12 12:00:13;;;;;;;6.63;3.63;;;-8.70;66.70;;;;;;5011571;28;20108;-82
2022/01/12 12:02:40;;;;;;;7.00;3.40;;;-8.80;66.70;;;;;;5035198;28;20025;-83
2022/01/12 12:05:10;;;;;;;9.73;3.70;;;-8.70;66.90;;;;;;5032857;28;20115;-83
2022/01/12 12:07:44;;;;;;;6.93;3.58;;;-8.80;66.60;;;;;;5052444;28;20025;-84
2022/01/12 12:10:12;;;;;;;7.45;3.67;;;-8.80;66.90;;;;;;5048693;28;20045;-83
2022/01/12 12:12:38;;;;;;;6.57;3.35;;;-8.80;66.80;;;;;;5026505;28;20021;-81
2022/01/12 12:15:08;;;;;;;6.57;3.75;;;-8.80;67.30;;;;;;5044990;28;20113;-82
2022/01/12 12:17:36;;;;;;;7.95;4.05;;;-8.80;67.20;;;;;;5026852;28;20680;-83
2022/01/12 12:20:06;;;;;;;8.77;3.72;;;-8.80;67.30;;;;;;5029065;28;20033;-82
2022/01/12 12:22:34;;;;;;;9.15;3.85;;;-8.80;67.70;;;;;;5030211;28;20032;-83
2022/01/12 12:25:04;;;;;;;5.47;3.08;;;-8.90;67.40;;;;;;5049200;28;20029;-83
2022/01/12 12:27:31;;;;;;;5.90;3.38;;;-8.90;67.30;;;;;;5049472;28;20017;-82
2022/01/12 12:29:57;;;;;;;7.28;3.38;;;-8.90;67.30;;;;;;5047979;28;20051;-83
2022/01/12 12:32:44;;;;;;;9.30;3.90;;;-8.90;67.60;;;;;;5048709;28;20029;-83
2022/01/12 12:35:16;;;;;;;9.23;3.90;;;-9.00;68.50;;;;;;5030782;28;20025;-82
2022/01/12 12:37:45;;;;;;;7.57;3.85;;;-9.00;68.90;;;;;;5048292;28;20025;-83
2022/01/12 12:40:35;;;;;;;8.90;3.75;;;-9.10;69.20;;;;;;5027853;28;20111;-85
2022/01/12 12:43:07;;;;;;;6.15;3.50;;;-9.20;69.90;;;;;;4996777;28;20076;-83
2022/01/12 12:45:48;;;;;;;7.25;3.80;;;-9.20;68.80;;;;;;5010367;28;20083;-82
2022/01/12 12:48:16;;;;;;;7.57;3.67;;;-9.20;68.70;;;;;;5010493;28;20025;-83
2022/01/12 12:50:42;;;;;;;7.85;3.50;;;-9.40;68.00;;;;;;5011002;28;20088;-85
2022/01/12 12:53:08;;;;;;;7.93;3.72;;;-9.40;68.50;;;;;;5011472;28;20037;-83
2022/01/12 12:55:45;;;;;;;8.18;4.13;;;-9.30;68.20;;;;;;5028362;28;20492;-82
2022/01/12 12:58:14;;;;;;;9.13;4.00;;;-9.40;68.00;;;;;;5010218;28;20029;-82
2022/01/12 13:00:40;;;;;;;22.52;8.75;;;-9.40;68.40;;;;;;5012682;28;20038;-85
2022/01/12 13:03:06;;;;;;;17.90;7.60;;;-9.40;68.40;;;;;;5028874;28;20029;-84
2022/01/12 13:05:41;;;;;;;12.38;5.10;;;-9.40;68.40;;;;;;5045192;28;20062;-81
2022/01/12 13:08:07;;;;;;;8.95;4.50;;;-9.40;68.10;;;;;;5054830;28;20071;-82
2022/01/12 13:10:34;;;;;;;10.18;4.20;;;-9.50;67.80;;;;;;5054292;28;20063;-85
2022/01/12 13:13:04;;;;;;;8.63;4.00;;;-9.60;67.50;;;;;;5068996;28;20028;-84
2022/01/12 13:15:38;;;;;;;9.18;3.88;;;-9.70;67.90;;;;;;5068586;28;20025;-84
2022/01/12 13:18:22;;;;;;;9.55;4.13;;;-9.70;68.20;;;;;;5068597;28;20111;-83
2022/01/12 13:21:09;;;;;;;9.77;4.18;;;-9.80;68.40;;;;;;5050675;28;20039;-83
2022/01/12 13:23:44;;;;;;;12.55;5.55;;;-9.90;68.00;;;;;;5050560;28;20119;-84
2022/01/12 13:26:12;;;;;;;13.27;6.05;;;-9.90;68.90;;;;;;5051217;28;20103;-85
2022/01/12 13:28:42;;;;;;;9.48;4.82;;;-9.90;69.40;;;;;;5051129;28;20024;-82
2022/01/12 13:31:12;;;;;;;10.45;4.38;;;-9.90;69.50;;;;;;5051271;28;20028;-82
2022/01/12 13:33:47;;;;;;;13.38;5.00;;;-9.90;69.40;;;;;;5049744;28;20029;-84
2022/01/12 13:36:18;;;;;;;8.18;4.10;;;-10.00;69.90;;;;;;5049799;28;20024;-86
2022/01/12 13:38:48;;;;;;;8.35;3.80;;;-10.00;70.20;;;;;;5068472;28;20028;-83
2022/01/12 13:41:22;;;;;;;12.95;4.53;;;-10.10;70.70;;;;;;5050256;28;20561;-85
2022/01/12 13:44:05;;;;;;;9.05;4.55;;;-10.20;71.30;;;;;;5050588;28;20064;-84
2022/01/12 13:46:44;;;;;;;10.55;4.43;;;-10.20;70.80;;;;;;5068271;28;20024;-84
2022/01/12 13:51:56;;;;;;;9.63;3.88;;;-10.40;70.40;;;;;;5050141;28;20119;-83
2022/01/12 13:54:22;;;;;;;5.93;3.28;;;-10.40;70.60;;;;;;5050336;28;20135;-84
2022/01/12 13:56:53;;;;;;;8.43;3.85;;;-10.50;70.10;;;;;;5049609;28;20082;-84
2022/01/12 13:59:20;;;;;;;10.57;4.00;;;-10.50;70.30;;;;;;5067989;28;20466;-85
2022/01/12 14:01:50;;;;;;;8.20;3.70;;;-10.50;69.60;;;;;;5068217;28;20482;-84
2022/01/12 14:04:48;;;;;;;11.40;3.60;;;-10.50;69.60;;;;;;5068259;28;20074;-83
2022/01/12 14:07:29;;;;;;;7.78;3.65;;;-10.70;68.60;;;;;;5071234;28;20074;-87
2022/01/12 14:09:57;;;;;;;8.75;3.50;;;-10.70;69.40;;;;;;5058961;28;20071;-89
2022/01/12 14:12:27;;;;;;;7.95;4.20;;;-10.70;69.80;;;;;;5074886;28;20212;-87
2022/01/12 14:14:59;;;;;;;9.02;4.00;;;-10.80;70.10;;;;;;5051146;28;20070;-86